sim
Sign-in with your pilot id or email,
or register
Callsign
Passwort

Schedule Details

Flight Number: GEC8472 (2A)
Departure: Mumbai Chhatrapati Shivaji International Airport (VABB) at 05:45
Arrival: Hong Kong International Airport (VHHH) at 11:15
Route: Lufthansa Cargo Cargo Schedule. Enter filed route here before submitting Pirep.

Weather Information
Getting current METAR information for VABB 152230Z 36004KT 2100 HZ NSC 24/20 Q1011 NOSIG
Getting current METAR information for VHHH 152230Z 07014KT 9999 FEW025 SCT045 21/17 Q1018 NOSIG

Schedule Frequency

Route Map